createdAt,value
2024-03-05T00:01:51.835Z,10.38
2024-03-05T00:04:54.099Z,9.18
2024-03-05T00:07:56.116Z,9.07
2024-03-05T00:10:58.424Z,9.57
2024-03-05T00:14:01.058Z,10.07
2024-03-05T00:17:03.276Z,7.90
2024-03-05T00:20:05.463Z,10.50
2024-03-05T00:23:07.576Z,10.35
2024-03-05T00:26:14.845Z,8.13
2024-03-05T00:29:17.394Z,9.73
2024-03-05T00:32:19.458Z,7.85
2024-03-05T00:35:21.719Z,8.77
2024-03-05T00:38:28.998Z,8.65
2024-03-05T00:41:35.798Z,7.97
2024-03-05T00:44:37.685Z,7.90
2024-03-05T00:47:39.843Z,8.80
2024-03-05T00:50:41.682Z,7.72
2024-03-05T00:53:43.866Z,6.90
2024-03-05T00:56:45.804Z,7.72
2024-03-05T00:59:49.658Z,8.40
2024-03-05T01:02:52.070Z,7.22
2024-03-05T01:05:54.197Z,9.85
2024-03-05T01:08:56.885Z,6.90
2024-03-05T01:11:59.113Z,8.80
2024-03-05T01:15:01.032Z,6.60
2024-03-05T01:18:03.360Z,10.25
2024-03-05T01:21:07.382Z,8.13
2024-03-05T01:24:10.915Z,8.63
2024-03-05T01:27:12.819Z,11.32
2024-03-05T01:30:15.459Z,9.65
2024-03-05T01:33:24.066Z,11.15
2024-03-05T01:36:26.558Z,10.40
2024-03-05T01:39:29.574Z,7.87
2024-03-05T01:45:34.595Z,8.90
2024-03-05T01:48:36.821Z,7.83
2024-03-05T01:51:38.917Z,9.93
2024-03-05T01:54:41.062Z,8.13
2024-03-05T01:57:44.773Z,8.82
2024-03-05T02:00:47.574Z,8.88
2024-03-05T02:03:49.852Z,7.80
2024-03-05T02:06:54.931Z,8.02
2024-03-05T02:09:57.653Z,8.13
2024-03-05T02:12:59.498Z,7.95
2024-03-05T02:16:01.682Z,6.43
2024-03-05T02:19:06.218Z,9.77
2024-03-05T02:22:08.786Z,8.55
2024-03-05T02:25:11.315Z,8.23
2024-03-05T02:28:13.956Z,7.90
2024-03-05T02:31:16.596Z,6.37
2024-03-05T02:34:18.934Z,8.52
2024-03-05T02:37:23.890Z,8.48
2024-03-05T02:40:26.497Z,7.75
2024-03-05T02:43:28.492Z,8.93
2024-03-05T02:46:30.936Z,7.85
2024-03-05T02:49:32.834Z,6.50
2024-03-05T02:52:34.975Z,7.75
2024-03-05T02:55:40.116Z,8.85
2024-03-05T02:58:43.390Z,8.02
2024-03-05T03:01:48.719Z,10.20
2024-03-05T03:04:52.593Z,6.07
2024-03-05T03:07:54.677Z,7.30
2024-03-05T03:10:57.280Z,7.53
2024-03-05T03:13:59.274Z,7.95
2024-03-05T03:17:01.558Z,7.57
2024-03-05T03:20:04.606Z,8.23
2024-03-05T03:23:06.900Z,7.68
2024-03-05T03:26:10.546Z,7.95
2024-03-05T03:29:13.039Z,6.95
2024-03-05T03:32:15.444Z,10.57
2024-03-05T03:35:18.317Z,10.32
2024-03-05T03:38:20.137Z,7.90
2024-03-05T03:41:22.311Z,6.62
2024-03-05T03:44:24.167Z,8.07
2024-03-05T03:47:26.252Z,8.65
2024-03-05T03:50:28.120Z,7.97
2024-03-05T03:53:32.058Z,7.93
2024-03-05T03:59:37.222Z,7.80
2024-03-05T04:02:39.136Z,8.70
2024-03-05T04:05:41.284Z,9.07
2024-03-05T04:08:43.156Z,7.30
2024-03-05T04:11:45.804Z,7.25
2024-03-05T04:14:47.720Z,9.02
2024-03-05T04:17:50.315Z,8.30
2024-03-05T04:20:52.699Z,9.20
2024-03-05T04:23:55.367Z,7.47
2024-03-05T04:27:03.991Z,8.43
2024-03-05T04:30:11.731Z,9.27
2024-03-05T04:33:16.885Z,8.07
2024-03-05T04:36:19.348Z,8.95
2024-03-05T04:39:22.731Z,8.73
2024-03-05T04:45:27.055Z,8.27
2024-03-05T04:48:29.278Z,8.65
2024-03-05T04:51:31.159Z,9.00
2024-03-05T04:54:35.374Z,9.60
2024-03-05T04:57:37.248Z,9.40
2024-03-05T05:00:39.509Z,8.20
2024-03-05T05:03:44.086Z,7.40
2024-03-05T05:06:46.854Z,7.00
2024-03-05T05:09:48.735Z,9.63
2024-03-05T05:12:50.950Z,10.88
2024-03-05T05:15:52.892Z,9.73
2024-03-05T05:18:55.012Z,7.93
2024-03-05T05:21:56.887Z,9.52
2024-03-05T05:24:59.968Z,8.57
2024-03-05T05:28:01.803Z,9.50
2024-03-05T05:31:04.842Z,8.05
2024-03-05T05:34:06.724Z,10.23
2024-03-05T05:37:08.935Z,9.25
2024-03-05T05:40:12.202Z,7.90
2024-03-05T05:46:17.590Z,9.25
2024-03-05T05:49:22.931Z,9.70
2024-03-05T05:52:24.929Z,8.27
2024-03-05T05:55:27.614Z,7.93
2024-03-05T05:58:30.054Z,9.67
2024-03-05T06:01:34.671Z,9.82
2024-03-05T06:04:39.609Z,11.15
2024-03-05T06:07:41.553Z,10.57
2024-03-05T06:10:43.962Z,10.20
2024-03-05T06:13:46.432Z,11.07
2024-03-05T06:16:48.793Z,11.12
2024-03-05T06:19:51.574Z,12.30
2024-03-05T06:22:53.883Z,11.57
2024-03-05T06:25:55.836Z,10.70
2024-03-05T06:28:59.119Z,10.85
2024-03-05T06:32:01.503Z,12.88
2024-03-05T06:35:03.876Z,10.37
2024-03-05T06:38:07.785Z,11.40
2024-03-05T06:41:11.205Z,13.00
2024-03-05T06:44:15.951Z,14.43
2024-03-05T06:47:24.194Z,13.20
2024-03-05T06:50:34.980Z,12.68
2024-03-05T06:53:55.558Z,13.70
2024-03-05T06:56:57.391Z,13.32
2024-03-05T06:59:59.538Z,15.35
2024-03-05T07:03:01.508Z,14.35
2024-03-05T07:06:08.330Z,13.13
2024-03-05T07:09:12.616Z,15.63
2024-03-05T07:12:16.408Z,16.02
2024-03-05T07:15:18.490Z,12.13
2024-03-05T07:18:21.007Z,14.55
2024-03-05T07:21:24.390Z,13.52
2024-03-05T07:24:30.117Z,14.45
2024-03-05T07:27:32.286Z,13.90
2024-03-05T07:30:34.534Z,17.77
2024-03-05T07:33:46.984Z,17.52
2024-03-05T07:36:50.999Z,15.20
2024-03-05T07:39:52.996Z,15.77
2024-03-05T07:42:55.223Z,14.77
2024-03-05T07:45:57.168Z,15.30
2024-03-05T07:48:59.850Z,14.30
2024-03-05T07:52:01.785Z,15.60
2024-03-05T07:55:05.262Z,14.13
2024-03-05T07:58:09.896Z,14.93
2024-03-05T08:01:12.940Z,14.82
2024-03-05T08:04:15.901Z,16.65
2024-03-05T08:07:17.828Z,15.85
2024-03-05T08:10:20.595Z,15.95
2024-03-05T08:13:23.503Z,16.00
2024-03-05T08:16:26.685Z,14.57
2024-03-05T08:19:30.606Z,18.30
2024-03-05T08:22:33.183Z,16.73
2024-03-05T08:25:35.153Z,17.45
2024-03-05T08:28:37.377Z,15.15
2024-03-05T08:31:40.053Z,16.90
2024-03-05T08:34:43.598Z,18.55
2024-03-05T08:37:49.317Z,18.23
2024-03-05T08:40:51.634Z,15.93
2024-03-05T08:43:53.674Z,16.80
2024-03-05T08:46:55.951Z,19.17
2024-03-05T08:49:58.018Z,18.42
2024-03-05T08:53:00.345Z,16.60
2024-03-05T08:56:02.428Z,16.55
2024-03-05T08:59:07.642Z,19.27
2024-03-05T09:02:11.292Z,17.80
2024-03-05T09:05:14.298Z,17.70
2024-03-05T09:08:16.361Z,17.97
2024-03-05T09:11:19.083Z,16.60
2024-03-05T09:14:22.760Z,16.27
2024-03-05T09:17:25.976Z,15.18
2024-03-05T09:20:34.603Z,16.98
2024-03-05T09:23:43.127Z,16.65
2024-03-05T09:26:45.102Z,17.62
2024-03-05T09:29:47.230Z,15.95
2024-03-05T09:32:49.337Z,18.87
2024-03-05T09:35:51.828Z,17.17
2024-03-05T09:38:53.816Z,16.15
2024-03-05T09:41:55.996Z,14.57
2024-03-05T09:44:57.907Z,18.67
2024-03-05T09:48:00.331Z,17.85
2024-03-05T09:51:02.772Z,17.35
2024-03-05T09:54:07.335Z,17.03
2024-03-05T09:57:09.479Z,17.75
2024-03-05T10:00:18.836Z,16.70
2024-03-05T10:03:21.788Z,15.43
2024-03-05T10:06:24.573Z,15.25
2024-03-05T10:09:26.959Z,16.27
2024-03-05T10:12:29.052Z,13.27
2024-03-05T10:15:31.938Z,14.77
2024-03-05T10:18:37.983Z,14.27
2024-03-05T10:21:41.899Z,13.95
2024-03-05T10:24:43.916Z,14.65
2024-03-05T10:27:47.882Z,12.88
2024-03-05T10:30:59.061Z,14.18
2024-03-05T10:34:01.248Z,13.05
2024-03-05T10:37:03.942Z,14.27
2024-03-05T10:40:09.746Z,13.52
2024-03-05T10:43:11.698Z,14.23
2024-03-05T10:46:14.338Z,13.35
2024-03-05T10:49:18.274Z,13.55
2024-03-05T10:52:22.278Z,11.38
2024-03-05T10:55:25.040Z,12.23
2024-03-05T10:58:53.501Z,12.95
2024-03-05T11:01:57.638Z,12.73
2024-03-05T11:05:01.849Z,12.10
2024-03-05T11:08:05.373Z,11.65
2024-03-05T11:11:12.965Z,11.95
2024-03-05T11:14:15.335Z,12.57
2024-03-05T11:17:17.733Z,12.03
2024-03-05T11:20:41.593Z,10.82
2024-03-05T11:23:53.111Z,11.63
2024-03-05T11:27:12.759Z,11.95
2024-03-05T11:30:19.568Z,11.43
2024-03-05T11:33:25.533Z,9.63
2024-03-05T11:36:28.282Z,8.40
2024-03-05T11:39:30.440Z,7.83
2024-03-05T11:42:33.718Z,8.13
2024-03-05T11:45:45.090Z,7.18
2024-03-05T11:48:47.277Z,8.25
2024-03-05T11:51:49.271Z,5.35
2024-03-05T11:54:58.827Z,5.78
2024-03-05T11:58:02.461Z,6.07
2024-03-05T12:01:06.092Z,5.60
2024-03-05T12:04:10.773Z,7.18
2024-03-05T12:07:13.300Z,8.02
2024-03-05T12:10:20.995Z,6.18
2024-03-05T12:13:23.037Z,5.93
2024-03-05T12:16:25.340Z,5.53
2024-03-05T12:19:27.745Z,5.60
2024-03-05T12:22:30.057Z,5.62
2024-03-05T12:25:33.221Z,4.93
2024-03-05T12:28:35.993Z,5.62
2024-03-05T12:31:38.084Z,5.30
2024-03-05T12:34:44.132Z,4.93
2024-03-05T12:37:47.402Z,5.95
2024-03-05T12:41:00.470Z,6.22
2024-03-05T12:44:02.544Z,5.80
2024-03-05T12:47:14.896Z,7.93
2024-03-05T12:50:19.409Z,7.90
2024-03-05T12:53:21.711Z,6.50
2024-03-05T12:56:23.704Z,7.25
2024-03-05T12:59:26.358Z,7.32
2024-03-05T13:02:28.688Z,8.53
2024-03-05T13:05:32.222Z,8.68
2024-03-05T13:08:35.459Z,7.65
2024-03-05T13:11:38.730Z,7.90
2024-03-05T13:14:41.577Z,7.53
2024-03-05T13:17:43.853Z,7.97
2024-03-05T13:20:45.957Z,8.85
2024-03-05T13:23:48.205Z,9.40
2024-03-05T13:26:50.261Z,8.50
2024-03-05T13:30:01.456Z,7.07
2024-03-05T13:33:12.749Z,10.77
2024-03-05T13:36:15.030Z,10.63
2024-03-05T13:39:23.460Z,9.50
2024-03-05T13:42:26.054Z,11.73
2024-03-05T13:45:28.740Z,11.75
2024-03-05T13:48:34.748Z,11.30
2024-03-05T13:51:36.812Z,13.10
2024-03-05T13:54:39.298Z,10.10
2024-03-05T13:57:41.772Z,11.77
2024-03-05T14:00:44.359Z,11.23
2024-03-05T14:03:46.839Z,10.40
2024-03-05T14:06:52.158Z,10.95
2024-03-05T14:09:57.534Z,10.43
2024-03-05T14:13:00.979Z,10.32
2024-03-05T14:16:07.522Z,9.52
2024-03-05T14:19:09.608Z,8.85
2024-03-05T14:22:12.440Z,10.83
2024-03-05T14:25:14.761Z,9.10
2024-03-05T14:28:16.980Z,9.23
2024-03-05T14:31:19.124Z,12.23
2024-03-05T14:34:24.282Z,10.48
2024-03-05T14:37:26.181Z,10.43
2024-03-05T14:40:28.491Z,10.57
2024-03-05T14:43:30.380Z,8.90
2024-03-05T14:46:34.014Z,9.07
2024-03-05T14:52:37.881Z,9.68
2024-03-05T14:55:39.779Z,9.25
2024-03-05T14:58:42.079Z,7.80
2024-03-05T15:01:44.116Z,10.07
2024-03-05T15:04:46.435Z,10.40
2024-03-05T15:07:48.703Z,8.50
2024-03-05T15:10:51.158Z,10.77
2024-03-05T15:13:53.402Z,8.20
2024-03-05T15:16:55.629Z,11.02
2024-03-05T15:19:57.631Z,9.40
2024-03-05T15:23:00.738Z,11.30
2024-03-05T15:26:03.092Z,8.98
2024-03-05T15:29:05.707Z,8.97
2024-03-05T15:32:07.777Z,10.52
2024-03-05T15:35:11.735Z,9.80
2024-03-05T15:38:14.688Z,7.32
2024-03-05T15:41:17.023Z,10.18
2024-03-05T15:44:19.401Z,9.43
2024-03-05T15:47:21.667Z,11.20
2024-03-05T15:50:26.112Z,10.85
2024-03-05T15:53:29.056Z,8.80
2024-03-05T15:56:58.606Z,11.17
2024-03-05T16:00:12.849Z,9.10
2024-03-05T16:06:19.425Z,10.50
2024-03-05T16:09:21.937Z,10.50
2024-03-05T16:12:25.215Z,8.73
2024-03-05T16:15:28.015Z,9.95
2024-03-05T16:18:30.192Z,10.70
2024-03-05T16:21:34.945Z,8.77
2024-03-05T16:24:37.111Z,10.02
2024-03-05T16:27:45.841Z,9.52
2024-03-05T16:30:49.409Z,9.50
2024-03-05T16:33:51.451Z,11.70
2024-03-05T16:36:53.673Z,10.57
2024-03-05T16:39:55.884Z,9.27
2024-03-05T16:42:58.551Z,9.82
2024-03-05T16:46:01.145Z,11.85
2024-03-05T16:49:04.848Z,9.32
2024-03-05T16:52:07.746Z,10.45
2024-03-05T16:55:13.749Z,10.38
2024-03-05T16:58:19.003Z,9.63
2024-03-05T17:01:23.580Z,7.85
2024-03-05T17:10:35.379Z,12.52
2024-03-05T17:13:43.921Z,9.23
2024-03-05T17:16:47.748Z,10.10
2024-03-05T17:19:50.150Z,11.02
2024-03-05T17:22:53.199Z,11.15
2024-03-05T17:25:58.850Z,11.43
2024-03-05T17:29:06.670Z,11.07
2024-03-05T17:32:10.806Z,12.48
2024-03-05T17:38:15.176Z,12.27
2024-03-05T17:41:17.334Z,11.52
2024-03-05T17:44:19.925Z,10.45
2024-03-05T17:47:21.904Z,10.90
2024-03-05T17:50:25.826Z,11.25
2024-03-05T17:56:31.327Z,11.27
2024-03-05T17:59:33.804Z,9.40
2024-03-05T18:02:36.548Z,10.73
2024-03-05T18:05:38.838Z,11.67
2024-03-05T18:08:40.792Z,10.85
2024-03-05T18:11:43.096Z,9.98
2024-03-05T18:14:46.285Z,11.02
2024-03-05T18:17:50.042Z,9.30
2024-03-05T18:23:58.582Z,11.93
2024-03-05T18:27:05.098Z,13.00
2024-03-05T18:30:08.989Z,13.60
2024-03-05T18:33:12.764Z,13.85
2024-03-05T18:36:17.033Z,12.02
2024-03-05T18:39:23.113Z,12.68
2024-03-05T18:42:25.497Z,15.75
2024-03-05T18:45:32.662Z,11.93
2024-03-05T18:48:35.082Z,10.05
2024-03-05T18:51:36.966Z,10.48
2024-03-05T18:54:40.436Z,9.82
2024-03-05T18:57:45.370Z,11.10
2024-03-05T19:00:51.053Z,12.50
2024-03-05T19:03:58.918Z,14.87
2024-03-05T19:07:07.473Z,11.73
2024-03-05T19:10:10.316Z,10.65
2024-03-05T19:13:12.481Z,11.55
2024-03-05T19:16:15.991Z,11.55
2024-03-05T19:19:18.187Z,11.32
2024-03-05T19:22:20.336Z,11.20
2024-03-05T19:25:23.349Z,13.52
2024-03-05T19:28:26.185Z,12.25
2024-03-05T19:31:28.464Z,9.95
2024-03-05T19:34:30.709Z,10.55
2024-03-05T19:37:32.980Z,9.70
2024-03-05T19:40:34.912Z,10.93
2024-03-05T19:43:40.704Z,11.82
2024-03-05T19:46:43.777Z,10.60
2024-03-05T19:49:46.166Z,11.00
2024-03-05T19:52:48.199Z,10.30
2024-03-05T19:55:50.368Z,10.63
2024-03-05T19:58:52.511Z,10.57
2024-03-05T20:01:55.041Z,12.55
2024-03-05T20:04:57.395Z,9.80
2024-03-05T20:07:59.418Z,9.77
2024-03-05T20:11:01.931Z,8.88
2024-03-05T20:14:06.003Z,9.45
2024-03-05T20:17:08.574Z,12.27
2024-03-05T20:20:16.637Z,9.63
2024-03-05T20:23:19.727Z,10.25
2024-03-05T20:26:22.121Z,9.38
2024-03-05T20:29:24.435Z,11.65
2024-03-05T20:32:30.218Z,10.05
2024-03-05T20:35:32.527Z,10.93
2024-03-05T20:38:34.475Z,7.82
2024-03-05T20:41:37.684Z,7.53
2024-03-05T20:44:40.214Z,8.00
2024-03-05T20:47:42.610Z,9.33
2024-03-05T20:50:47.701Z,12.43
2024-03-05T20:53:50.416Z,9.20
2024-03-05T20:56:53.216Z,9.73
2024-03-05T21:00:00.838Z,10.77
2024-03-05T21:03:03.886Z,10.13
2024-03-05T21:06:06.279Z,9.73
2024-03-05T21:09:08.553Z,10.38
2024-03-05T21:12:12.797Z,13.20
2024-03-05T21:15:16.037Z,11.98
2024-03-05T21:21:20.131Z,8.05
2024-03-05T21:24:24.578Z,10.67
2024-03-05T21:27:27.262Z,8.77
2024-03-05T21:30:30.015Z,9.70
2024-03-05T21:33:31.970Z,9.18
2024-03-05T21:36:34.409Z,10.73
2024-03-05T21:39:36.395Z,11.02
2024-03-05T21:42:40.360Z,9.07
2024-03-05T21:48:45.167Z,7.95
2024-03-05T21:51:47.725Z,9.77
2024-03-05T21:54:49.917Z,8.77
2024-03-05T21:57:52.102Z,9.70
2024-03-05T22:00:54.816Z,8.55
2024-03-05T22:03:57.742Z,5.43
2024-03-05T22:06:59.822Z,7.37
2024-03-05T22:10:07.266Z,8.52
2024-03-05T22:13:09.396Z,9.35
2024-03-05T22:16:11.765Z,9.73
2024-03-05T22:19:14.374Z,9.60
2024-03-05T22:22:16.860Z,6.97
2024-03-05T22:25:18.922Z,9.15
2024-03-05T22:28:22.128Z,8.88
2024-03-05T22:31:24.793Z,8.90
2024-03-05T22:34:27.101Z,10.65
2024-03-05T22:37:30.066Z,7.90
2024-03-05T22:40:33.109Z,8.18
2024-03-05T22:43:35.137Z,8.47
2024-03-05T22:46:37.548Z,8.75
2024-03-05T22:49:39.646Z,10.88
2024-03-05T22:52:42.235Z,9.55
2024-03-05T22:55:44.287Z,8.15
2024-03-05T22:58:47.160Z,9.27
2024-03-05T23:01:49.277Z,8.70
2024-03-05T23:04:51.669Z,8.60
2024-03-05T23:07:53.908Z,8.85
2024-03-05T23:10:56.471Z,10.48
2024-03-05T23:13:58.932Z,10.02
2024-03-05T23:17:01.487Z,9.60
2024-03-05T23:20:05.728Z,11.50
2024-03-05T23:23:08.490Z,9.48
2024-03-05T23:26:10.626Z,7.70
2024-03-05T23:29:13.012Z,9.68
2024-03-05T23:32:15.170Z,9.68
2024-03-05T23:35:18.553Z,8.93
2024-03-05T23:38:22.090Z,10.90
2024-03-05T23:44:33.350Z,11.18
2024-03-05T23:47:35.762Z,9.35
2024-03-05T23:50:37.697Z,10.85
2024-03-05T23:53:40.242Z,11.52
2024-03-05T23:56:42.199Z,8.13
2024-03-05T23:59:45.743Z,7.87
